Bornholm Airport

Airport
ICAO code: 
EKRN
IATA Code: 
RNN
Summary
ICAO Region: 
EUR
Territory: 
Location: 
Rønne, Bornholm, Hovedstaden
Serving: 
Bornholm
Elevation: 
52 ft
Coordinates: 
Aerial View: 
55° 3' 47.186" N, 14° 45' 36.691" E
Metar
Observation
EKRN 011420Z AUTO 18021KT 5000 -RASN OVC005/// 07/06 Q0981
Station
Roenne
Date/Time
2021-12-01 14:20:00
Wind direction
180°
Wind speed
21 kts
Lowest cloud amount
overcast
Temperature
7°C
Dew point
6°C
Humidity
93%
QNH
981 hPa
Weather condition
n/a

Description

Bornholm Airport is a Danish airport located 5 km southeast of Rønne, on the island of Bornholm.

Runways

Designator Length Width Surface Rops
11/29 2002 45 ASP No/No
Airport map: 
Aerial View: 

Accidents and Serious Incidents at or in the vicinity of EKRN

SKYbrary Partners:

Safety knowledge contributed by: